createdAt,value
2022-11-13T00:01:17.654Z,5.29
2022-11-13T00:04:02.525Z,5.28
2022-11-13T00:06:47.872Z,5.27
2022-11-13T00:09:33.377Z,5.24
2022-11-13T00:12:18.447Z,5.19
2022-11-13T00:15:03.917Z,5.16
2022-11-13T00:17:48.991Z,5.13
2022-11-13T00:20:35.751Z,5.10
2022-11-13T00:23:20.922Z,5.10
2022-11-13T00:26:14.845Z,5.05
2022-11-13T00:29:01.914Z,5.05
2022-11-13T00:31:47.438Z,5.00
2022-11-13T00:34:46.990Z,4.97
2022-11-13T00:37:33.038Z,4.93
2022-11-13T00:40:18.122Z,4.90
2022-11-13T00:43:03.087Z,4.86
2022-11-13T00:45:48.001Z,4.85
2022-11-13T00:48:33.932Z,4.81
2022-11-13T00:51:19.728Z,4.79
2022-11-13T00:54:04.886Z,4.76
2022-11-13T00:56:50.231Z,4.73
2022-11-13T00:59:35.356Z,4.73
2022-11-13T01:02:20.694Z,4.71
2022-11-13T01:05:06.060Z,4.69
2022-11-13T01:07:51.104Z,4.68
2022-11-13T01:10:40.689Z,4.67
2022-11-13T01:13:25.848Z,4.66
2022-11-13T01:16:13.858Z,4.66
2022-11-13T01:18:59.138Z,4.65
2022-11-13T01:21:44.433Z,4.64
2022-11-13T01:24:30.926Z,4.64
2022-11-13T01:27:16.277Z,4.63
2022-11-13T01:30:01.277Z,4.60
2022-11-13T01:32:46.441Z,4.59
2022-11-13T01:35:31.476Z,4.59
2022-11-13T01:38:16.426Z,4.57
2022-11-13T01:41:01.931Z,4.53
2022-11-13T01:43:47.887Z,4.50
2022-11-13T01:46:33.890Z,4.48
2022-11-13T01:49:37.000Z,4.46
2022-11-13T01:52:41.142Z,4.43
2022-11-13T01:55:26.447Z,4.42
2022-11-13T01:58:13.274Z,4.41
2022-11-13T02:00:58.443Z,4.39
2022-11-13T02:03:43.664Z,4.38
2022-11-13T02:06:36.595Z,4.37
2022-11-13T02:09:26.520Z,4.36
2022-11-13T02:12:14.842Z,4.35
2022-11-13T02:15:02.347Z,4.34
2022-11-13T02:17:52.590Z,4.32
2022-11-13T02:21:03.160Z,4.30
2022-11-13T02:24:05.249Z,4.29
2022-11-13T02:26:53.890Z,4.27
2022-11-13T02:29:38.886Z,4.26
2022-11-13T02:32:24.181Z,4.22
2022-11-13T02:35:09.219Z,4.20
2022-11-13T02:38:02.335Z,4.19
2022-11-13T02:40:47.269Z,4.15
2022-11-13T02:43:32.427Z,4.10
2022-11-13T02:46:17.490Z,4.07
2022-11-13T02:49:02.989Z,4.03
2022-11-13T02:51:48.456Z,4.00
2022-11-13T02:54:33.627Z,3.96
2022-11-13T02:57:18.900Z,3.93
2022-11-13T03:00:07.972Z,3.89
2022-11-13T03:02:57.516Z,3.87
2022-11-13T03:05:42.650Z,3.85
2022-11-13T03:08:28.168Z,3.81
2022-11-13T03:11:13.639Z,3.80
2022-11-13T03:13:58.897Z,3.78
2022-11-13T03:16:44.173Z,3.73
2022-11-13T03:19:29.521Z,3.70
2022-11-13T03:22:14.621Z,3.68
2022-11-13T03:24:59.768Z,3.65
2022-11-13T03:27:45.092Z,3.65
2022-11-13T03:30:30.533Z,3.63
2022-11-13T03:33:15.986Z,3.61
2022-11-13T03:36:01.033Z,3.57
2022-11-13T03:38:46.138Z,3.54
2022-11-13T03:41:30.987Z,3.51
2022-11-13T03:44:16.187Z,3.48
2022-11-13T03:47:01.645Z,3.43
2022-11-13T03:49:46.907Z,3.41
2022-11-13T03:52:31.993Z,3.39
2022-11-13T03:55:16.961Z,3.37
2022-11-13T03:58:01.924Z,3.37
2022-11-13T04:00:47.800Z,3.36
2022-11-13T04:03:32.826Z,3.36
2022-11-13T04:06:18.228Z,3.34
2022-11-13T04:09:03.128Z,3.31
2022-11-13T04:11:48.491Z,3.28
2022-11-13T04:14:33.339Z,3.24
2022-11-13T04:17:18.882Z,3.22
2022-11-13T04:20:04.448Z,3.21
2022-11-13T04:22:49.391Z,3.21
2022-11-13T04:25:34.868Z,3.19
2022-11-13T04:28:20.055Z,3.17
2022-11-13T04:31:06.462Z,3.14
2022-11-13T04:33:51.749Z,3.14
2022-11-13T04:36:37.226Z,3.13
2022-11-13T04:39:22.193Z,3.12
2022-11-13T04:42:25.888Z,3.11
2022-11-13T04:45:11.243Z,3.08
2022-11-13T04:47:56.600Z,3.08
2022-11-13T04:50:41.800Z,3.05
2022-11-13T04:53:26.980Z,3.04
2022-11-13T04:56:11.827Z,3.05
2022-11-13T04:58:57.180Z,3.04
2022-11-13T05:01:42.366Z,3.01
2022-11-13T05:04:27.691Z,3.00
2022-11-13T05:07:13.067Z,2.98
2022-11-13T05:09:58.420Z,2.98
2022-11-13T05:12:43.716Z,2.96
2022-11-13T05:15:28.946Z,2.93
2022-11-13T05:18:14.407Z,2.91
2022-11-13T05:20:59.406Z,2.90
2022-11-13T05:23:44.686Z,2.88
2022-11-13T05:26:30.087Z,2.85
2022-11-13T05:29:15.286Z,2.82
2022-11-13T05:32:00.558Z,2.81
2022-11-13T05:34:45.651Z,2.81
2022-11-13T05:37:31.094Z,2.80
2022-11-13T05:40:16.494Z,2.78
2022-11-13T05:43:01.395Z,2.78
2022-11-13T05:45:46.613Z,2.76
2022-11-13T05:48:32.157Z,2.75
2022-11-13T05:51:21.123Z,2.73
2022-11-13T05:54:06.475Z,2.72
2022-11-13T05:56:51.677Z,2.71
2022-11-13T05:59:37.173Z,2.69
2022-11-13T06:02:22.526Z,2.69
2022-11-13T06:05:07.876Z,2.68
2022-11-13T06:07:52.877Z,2.67
2022-11-13T06:10:38.289Z,2.67
2022-11-13T06:13:23.397Z,2.65
2022-11-13T06:16:11.681Z,2.63
2022-11-13T06:18:59.522Z,2.59
2022-11-13T06:21:44.641Z,2.56
2022-11-13T06:24:29.726Z,2.53
2022-11-13T06:27:15.082Z,2.51
2022-11-13T06:30:00.217Z,2.48
2022-11-13T06:32:45.161Z,2.46
2022-11-13T06:35:30.829Z,2.43
2022-11-13T06:38:16.006Z,2.42
2022-11-13T06:41:02.068Z,2.39
2022-11-13T06:43:47.747Z,2.36
2022-11-13T06:46:32.851Z,2.35
2022-11-13T06:49:17.944Z,2.36
2022-11-13T06:52:03.101Z,2.37
2022-11-13T06:54:48.320Z,2.38
2022-11-13T06:57:33.430Z,2.39
2022-11-13T07:00:18.822Z,2.42
2022-11-13T07:03:03.890Z,2.45
2022-11-13T07:05:49.615Z,2.49
2022-11-13T07:08:34.960Z,2.57
2022-11-13T07:11:23.335Z,2.65
2022-11-13T07:14:10.920Z,2.73
2022-11-13T07:17:09.354Z,2.78
2022-11-13T07:19:55.430Z,2.85
2022-11-13T07:22:40.366Z,2.89
2022-11-13T07:25:27.091Z,2.92
2022-11-13T07:28:12.561Z,2.95
2022-11-13T07:30:58.951Z,2.99
2022-11-13T07:33:44.984Z,3.05
2022-11-13T07:36:30.014Z,3.13
2022-11-13T07:39:14.978Z,3.21
2022-11-13T07:42:00.224Z,3.26
2022-11-13T07:44:54.432Z,3.32
2022-11-13T07:47:40.710Z,3.34
2022-11-13T07:50:31.274Z,3.40
2022-11-13T07:53:17.356Z,3.43
2022-11-13T07:56:04.047Z,3.50
2022-11-13T07:58:49.839Z,3.55
2022-11-13T08:01:35.029Z,3.59
2022-11-13T08:04:20.213Z,3.58
2022-11-13T08:07:05.484Z,3.56
2022-11-13T08:09:50.952Z,3.52
2022-11-13T08:12:36.029Z,3.52
2022-11-13T08:15:20.987Z,3.59
2022-11-13T08:18:06.666Z,3.64
2022-11-13T08:20:51.668Z,3.71
2022-11-13T08:23:36.582Z,3.77
2022-11-13T08:26:22.545Z,3.82
2022-11-13T08:29:07.571Z,3.85
2022-11-13T08:31:52.697Z,3.90
2022-11-13T08:34:40.030Z,3.94
2022-11-13T08:37:25.165Z,3.97
2022-11-13T08:40:10.860Z,4.00
2022-11-13T08:43:00.639Z,4.04
2022-11-13T08:45:47.195Z,4.13
2022-11-13T08:48:32.554Z,4.21
2022-11-13T08:51:18.330Z,4.31
2022-11-13T08:54:03.721Z,4.43
2022-11-13T08:56:52.982Z,4.55
2022-11-13T08:59:41.046Z,4.68
2022-11-13T09:02:27.183Z,4.89
2022-11-13T09:05:12.505Z,5.13
2022-11-13T09:07:59.402Z,5.39
2022-11-13T09:10:44.861Z,5.62
2022-11-13T09:13:30.718Z,5.85
2022-11-13T09:16:15.724Z,6.05
2022-11-13T09:19:01.244Z,6.22
2022-11-13T09:21:47.156Z,6.39
2022-11-13T09:24:32.878Z,6.58
2022-11-13T09:27:18.391Z,6.76
2022-11-13T09:30:04.153Z,6.91
2022-11-13T09:32:54.406Z,7.04
2022-11-13T09:35:39.394Z,7.24
2022-11-13T09:38:24.618Z,7.40
2022-11-13T09:41:11.511Z,7.56
2022-11-13T09:44:01.612Z,7.69
2022-11-13T09:47:19.980Z,7.83
2022-11-13T09:50:11.011Z,7.96
2022-11-13T09:52:57.212Z,8.05
2022-11-13T09:56:17.174Z,8.20
2022-11-13T09:59:11.892Z,8.27
2022-11-13T10:02:30.229Z,8.30
2022-11-13T10:05:15.500Z,8.41
2022-11-13T10:08:06.249Z,8.49
2022-11-13T10:10:59.481Z,8.57
2022-11-13T10:13:49.214Z,8.60
2022-11-13T10:16:45.073Z,8.62
2022-11-13T10:19:40.397Z,8.62
2022-11-13T10:22:35.958Z,8.65
2022-11-13T10:25:28.676Z,8.75
2022-11-13T10:31:51.043Z,8.84
2022-11-13T10:34:36.025Z,8.89
2022-11-13T10:37:55.994Z,9.01
2022-11-13T10:40:41.362Z,9.02
2022-11-13T10:43:27.320Z,8.98
2022-11-13T10:46:19.309Z,9.08
2022-11-13T10:49:21.784Z,9.11
2022-11-13T10:52:47.766Z,9.05
2022-11-13T10:55:40.692Z,9.11
2022-11-13T10:58:26.512Z,9.22
2022-11-13T11:01:21.905Z,9.40
2022-11-13T11:04:20.278Z,9.50
2022-11-13T11:07:21.563Z,9.60
2022-11-13T11:10:29.879Z,9.66
2022-11-13T11:13:22.779Z,9.72
2022-11-13T11:16:10.550Z,9.70
2022-11-13T11:19:04.139Z,9.70
2022-11-13T11:21:53.499Z,9.71
2022-11-13T11:24:45.304Z,9.73
2022-11-13T11:27:39.951Z,9.80
2022-11-13T11:30:26.799Z,9.82
2022-11-13T11:33:35.518Z,9.79
2022-11-13T11:36:41.902Z,9.73
2022-11-13T11:39:50.437Z,9.68
2022-11-13T11:43:01.401Z,9.63
2022-11-13T11:45:47.343Z,9.62
2022-11-13T11:48:34.408Z,9.64
2022-11-13T11:51:31.212Z,9.60
2022-11-13T11:54:42.299Z,9.61
2022-11-13T11:57:55.298Z,9.64
2022-11-13T12:00:50.153Z,9.72
2022-11-13T12:04:16.091Z,9.84
2022-11-13T12:07:37.849Z,9.82
2022-11-13T12:10:43.118Z,9.75
2022-11-13T12:13:31.614Z,9.71
2022-11-13T12:16:28.053Z,9.70
2022-11-13T12:19:23.264Z,9.66
2022-11-13T12:22:25.818Z,9.55
2022-11-13T12:25:24.532Z,9.50
2022-11-13T12:28:13.412Z,9.49
2022-11-13T12:31:11.752Z,9.50
2022-11-13T12:34:06.220Z,9.51
2022-11-13T12:36:52.876Z,9.53
2022-11-13T12:40:01.489Z,9.55
2022-11-13T12:42:51.340Z,9.57
2022-11-13T12:45:36.564Z,9.50
2022-11-13T12:48:28.438Z,9.50
2022-11-13T12:51:18.480Z,9.47
2022-11-13T12:54:03.857Z,9.45
2022-11-13T12:56:49.271Z,9.42
2022-11-13T12:59:39.184Z,9.39
2022-11-13T13:03:06.981Z,9.39
2022-11-13T13:06:20.604Z,9.41
2022-11-13T13:09:18.669Z,9.39
2022-11-13T13:12:31.815Z,9.37
2022-11-13T13:15:39.874Z,9.32
2022-11-13T13:18:32.314Z,9.29
2022-11-13T13:21:19.472Z,9.26
2022-11-13T13:24:26.076Z,9.25
2022-11-13T13:27:30.128Z,9.25
2022-11-13T13:30:21.356Z,9.22
2022-11-13T13:33:22.194Z,9.20
2022-11-13T13:36:29.508Z,9.18
2022-11-13T13:45:26.811Z,9.10
2022-11-13T13:48:15.450Z,9.07
2022-11-13T13:51:02.096Z,9.06
2022-11-13T13:53:49.136Z,9.06
2022-11-13T13:56:40.139Z,9.02
2022-11-13T13:59:32.023Z,9.01
2022-11-13T14:02:19.824Z,9.02
2022-11-13T14:05:29.064Z,8.98
2022-11-13T14:08:19.195Z,8.95
2022-11-13T14:11:18.224Z,8.93
2022-11-13T14:14:21.470Z,8.91
2022-11-13T14:17:08.881Z,8.88
2022-11-13T14:19:55.683Z,8.87
2022-11-13T14:22:43.018Z,8.88
2022-11-13T14:25:29.232Z,8.87
2022-11-13T14:28:53.645Z,8.87
2022-11-13T14:31:39.111Z,8.87
2022-11-13T14:34:24.411Z,8.87
2022-11-13T14:37:33.011Z,8.85
2022-11-13T14:40:26.772Z,8.83
2022-11-13T14:43:30.947Z,8.85
2022-11-13T14:46:44.224Z,8.88
2022-11-13T14:49:35.756Z,8.89
2022-11-13T14:52:26.118Z,8.92
2022-11-13T14:55:23.641Z,8.94
2022-11-13T14:58:12.808Z,8.96
2022-11-13T15:00:59.797Z,8.96
2022-11-13T15:03:46.393Z,8.95
2022-11-13T15:06:38.053Z,8.97
2022-11-13T15:09:25.406Z,9.00
2022-11-13T15:12:12.284Z,9.02
2022-11-13T15:14:57.344Z,9.04
2022-11-13T15:17:44.744Z,9.06
2022-11-13T15:20:30.927Z,9.06
2022-11-13T15:23:16.649Z,9.04
2022-11-13T15:26:01.934Z,9.03
2022-11-13T15:28:47.230Z,9.02
2022-11-13T15:31:34.032Z,9.01
2022-11-13T15:34:19.212Z,9.02
2022-11-13T15:37:12.116Z,9.01
2022-11-13T15:39:57.313Z,9.00
2022-11-13T15:42:43.754Z,8.99
2022-11-13T15:45:28.907Z,9.02
2022-11-13T15:48:13.961Z,9.01
2022-11-13T15:50:59.209Z,8.99
2022-11-13T15:53:48.359Z,8.99
2022-11-13T15:56:33.685Z,8.98
2022-11-13T15:59:18.650Z,8.97
2022-11-13T16:02:04.065Z,8.96
2022-11-13T16:04:56.500Z,8.96
2022-11-13T16:07:42.607Z,8.96
2022-11-13T16:10:27.750Z,8.97
2022-11-13T16:13:13.168Z,8.96
2022-11-13T16:15:59.647Z,8.97
2022-11-13T16:18:45.029Z,8.98
2022-11-13T16:21:30.806Z,8.99
2022-11-13T16:24:18.793Z,9.00
2022-11-13T16:27:06.541Z,9.01
2022-11-13T16:29:51.965Z,9.00
2022-11-13T16:32:36.962Z,9.02
2022-11-13T16:35:22.077Z,9.03
2022-11-13T16:38:12.845Z,9.07
2022-11-13T16:40:58.036Z,9.10
2022-11-13T16:43:44.252Z,9.09
2022-11-13T16:46:29.295Z,9.09
2022-11-13T16:49:19.051Z,9.09
2022-11-13T16:52:05.054Z,9.11
2022-11-13T16:54:51.512Z,9.12
2022-11-13T16:57:37.601Z,9.13
2022-11-13T17:00:25.376Z,9.13
2022-11-13T17:03:10.452Z,9.14
2022-11-13T17:05:55.628Z,9.13
2022-11-13T17:08:41.070Z,9.13
2022-11-13T17:11:29.399Z,9.11
2022-11-13T17:14:14.397Z,9.10
2022-11-13T17:16:59.725Z,9.08
2022-11-13T17:19:44.708Z,9.04
2022-11-13T17:22:29.819Z,8.90
2022-11-13T17:25:16.891Z,8.77
2022-11-13T17:28:01.827Z,8.72
2022-11-13T17:30:47.172Z,8.70
2022-11-13T17:33:32.460Z,8.66
2022-11-13T17:36:17.824Z,8.55
2022-11-13T17:39:04.066Z,8.46
2022-11-13T17:41:50.632Z,8.38
2022-11-13T17:44:36.061Z,8.28
2022-11-13T17:47:21.385Z,8.20
2022-11-13T17:50:08.026Z,8.15
2022-11-13T17:52:53.328Z,8.08
2022-11-13T17:55:38.408Z,7.99
2022-11-13T17:58:24.654Z,7.92
2022-11-13T18:01:16.121Z,7.84
2022-11-13T18:04:01.359Z,7.77
2022-11-13T18:06:46.994Z,7.72
2022-11-13T18:09:32.679Z,7.67
2022-11-13T18:12:18.214Z,7.62
2022-11-13T18:15:04.597Z,7.57
2022-11-13T18:17:49.961Z,7.52
2022-11-13T18:20:38.438Z,7.49
2022-11-13T18:23:23.901Z,7.45
2022-11-13T18:26:19.331Z,7.41
2022-11-13T18:29:04.915Z,7.41
2022-11-13T18:31:50.119Z,7.44
2022-11-13T18:34:35.216Z,7.48
2022-11-13T18:37:20.415Z,7.47
2022-11-13T18:40:06.805Z,7.44
2022-11-13T18:42:52.032Z,7.38
2022-11-13T18:45:37.612Z,7.34
2022-11-13T18:48:23.105Z,7.29
2022-11-13T18:51:12.142Z,7.24
2022-11-13T18:53:57.300Z,7.18
2022-11-13T18:56:42.756Z,7.12
2022-11-13T18:59:28.437Z,7.07
2022-11-13T19:02:14.117Z,7.03
2022-11-13T19:04:59.544Z,6.98
2022-11-13T19:07:44.784Z,6.94
2022-11-13T19:10:30.384Z,6.89
2022-11-13T19:13:15.562Z,6.84
2022-11-13T19:16:05.870Z,6.82
2022-11-13T19:18:54.192Z,6.79
2022-11-13T19:21:39.212Z,6.77
2022-11-13T19:24:24.154Z,6.74
2022-11-13T19:27:09.389Z,6.71
2022-11-13T19:29:54.654Z,6.69
2022-11-13T19:32:39.911Z,6.66
2022-11-13T19:35:26.314Z,6.61
2022-11-13T19:38:11.619Z,6.57
2022-11-13T19:40:57.140Z,6.55
2022-11-13T19:43:42.234Z,6.51
2022-11-13T19:46:28.651Z,6.50
2022-11-13T19:49:13.762Z,6.51
2022-11-13T19:52:01.425Z,6.53
2022-11-13T19:54:46.859Z,6.57
2022-11-13T19:57:31.955Z,6.65
2022-11-13T20:00:17.927Z,6.74
2022-11-13T20:03:07.416Z,6.82
2022-11-13T20:06:01.030Z,6.92
2022-11-13T20:08:46.107Z,7.03
2022-11-13T20:11:31.477Z,7.11
2022-11-13T20:14:16.774Z,7.17
2022-11-13T20:17:01.701Z,7.21
2022-11-13T20:19:47.023Z,7.27
2022-11-13T20:22:32.384Z,7.31
2022-11-13T20:25:17.787Z,7.35
2022-11-13T20:28:02.783Z,7.38
2022-11-13T20:30:48.319Z,7.38
2022-11-13T20:33:34.918Z,7.38
2022-11-13T20:36:20.466Z,7.35
2022-11-13T20:39:09.103Z,7.31
2022-11-13T20:41:54.890Z,7.27
2022-11-13T20:44:40.158Z,7.22
2022-11-13T20:47:25.365Z,7.19
2022-11-13T20:50:11.591Z,7.13
2022-11-13T20:52:56.778Z,7.07
2022-11-13T20:55:43.105Z,7.04
2022-11-13T20:58:28.679Z,7.00
2022-11-13T21:01:16.882Z,6.94
2022-11-13T21:04:02.888Z,6.89
2022-11-13T21:06:48.435Z,6.86
2022-11-13T21:09:33.998Z,6.80
2022-11-13T21:12:19.330Z,6.74
2022-11-13T21:15:05.231Z,6.69
2022-11-13T21:17:51.447Z,6.62
2022-11-13T21:20:37.389Z,6.57
2022-11-13T21:23:22.953Z,6.53
2022-11-13T21:26:09.185Z,6.50
2022-11-13T21:28:56.277Z,6.46
2022-11-13T21:31:41.631Z,6.43
2022-11-13T21:34:26.570Z,6.39
2022-11-13T21:37:14.306Z,6.37
2022-11-13T21:39:59.804Z,6.35
2022-11-13T21:42:45.360Z,6.31
2022-11-13T21:45:33.512Z,6.29
2022-11-13T21:48:18.637Z,6.27
2022-11-13T21:51:04.173Z,6.27
2022-11-13T21:53:49.672Z,6.27
2022-11-13T21:56:36.629Z,6.26
2022-11-13T21:59:21.632Z,6.24
2022-11-13T22:02:10.448Z,6.22
2022-11-13T22:04:55.617Z,6.22
2022-11-13T22:07:40.718Z,6.17
2022-11-13T22:15:46.910Z,6.14
2022-11-13T22:18:31.724Z,6.14
2022-11-13T22:21:16.587Z,6.13
2022-11-13T22:24:01.823Z,6.11
2022-11-13T22:26:47.076Z,6.13
2022-11-13T22:29:31.448Z,6.16
2022-11-13T22:32:15.844Z,6.17
2022-11-13T22:41:00.134Z,6.10
2022-11-13T22:43:46.515Z,6.08
2022-11-13T22:46:32.783Z,6.07
2022-11-13T22:49:18.421Z,6.11
2022-11-13T22:52:03.143Z,6.12
2022-11-13T22:54:47.611Z,6.14
2022-11-13T23:00:21.791Z,6.22
2022-11-13T23:03:06.194Z,6.20
2022-11-13T23:05:50.693Z,6.23
2022-11-13T23:08:38.292Z,6.25
2022-11-13T23:14:09.928Z,6.28
2022-11-13T23:16:54.897Z,6.30
2022-11-13T23:19:39.875Z,6.33
2022-11-13T23:22:24.774Z,6.34
2022-11-13T23:25:10.115Z,6.31
2022-11-13T23:27:55.246Z,6.30
2022-11-13T23:30:40.511Z,6.27
2022-11-13T23:33:25.536Z,6.27
2022-11-13T23:36:12.498Z,6.28
2022-11-13T23:38:57.648Z,6.35
2022-11-13T23:41:42.492Z,6.43
2022-11-13T23:44:27.798Z,6.51
2022-11-13T23:47:12.775Z,6.60
2022-11-13T23:49:58.265Z,6.69
2022-11-13T23:52:43.524Z,6.75
2022-11-13T23:55:28.901Z,6.80
2022-11-13T23:58:15.767Z,6.84
